sensor_id;sensor_type;location;lat;lon;timestamp;P1;durP1;ratioP1;P2;durP2;ratioP2
34828;SDS011;21042;47.620;12.188;2022-10-26T00:00:12;2.58;;;1.83;;
34828;SDS011;21042;47.620;12.188;2022-10-26T00:02:38;7.68;;;3.20;;
34828;SDS011;21042;47.620;12.188;2022-10-26T00:05:05;6.85;;;2.80;;
34828;SDS011;21042;47.620;12.188;2022-10-26T00:07:32;5.28;;;2.75;;
34828;SDS011;21042;47.620;12.188;2022-10-26T00:09:59;4.50;;;2.88;;
34828;SDS011;21042;47.620;12.188;2022-10-26T00:14:53;5.80;;;2.97;;
34828;SDS011;21042;47.620;12.188;2022-10-26T00:17:20;4.32;;;2.50;;
34828;SDS011;21042;47.620;12.188;2022-10-26T00:19:46;8.70;;;3.13;;
34828;SDS011;21042;47.620;12.188;2022-10-26T00:22:13;6.47;;;2.60;;
34828;SDS011;21042;47.620;12.188;2022-10-26T00:24:40;4.30;;;2.85;;
34828;SDS011;21042;47.620;12.188;2022-10-26T00:27:06;5.38;;;3.00;;
34828;SDS011;21042;47.620;12.188;2022-10-26T00:29:33;4.30;;;2.42;;
34828;SDS011;21042;47.620;12.188;2022-10-26T00:32:00;12.75;;;2.63;;
34828;SDS011;21042;47.620;12.188;2022-10-26T00:34:26;5.10;;;2.70;;
34828;SDS011;21042;47.620;12.188;2022-10-26T00:36:53;3.95;;;2.55;;
34828;SDS011;21042;47.620;12.188;2022-10-26T00:39:20;5.22;;;2.40;;
34828;SDS011;21042;47.620;12.188;2022-10-26T00:41:47;3.83;;;2.03;;
34828;SDS011;21042;47.620;12.188;2022-10-26T00:47:08;4.63;;;2.25;;
34828;SDS011;21042;47.620;12.188;2022-10-26T00:49:38;2.83;;;2.05;;
34828;SDS011;21042;47.620;12.188;2022-10-26T00:54:33;4.55;;;2.58;;
34828;SDS011;21042;47.620;12.188;2022-10-26T00:57:00;5.82;;;2.60;;
34828;SDS011;21042;47.620;12.188;2022-10-26T00:59:27;7.65;;;2.20;;
34828;SDS011;21042;47.620;12.188;2022-10-26T01:01:54;8.07;;;2.40;;
34828;SDS011;21042;47.620;12.188;2022-10-26T01:04:21;9.88;;;2.60;;
34828;SDS011;21042;47.620;12.188;2022-10-26T01:06:48;5.15;;;2.25;;
34828;SDS011;21042;47.620;12.188;2022-10-26T01:09:15;4.43;;;2.45;;
34828;SDS011;21042;47.620;12.188;2022-10-26T01:11:43;17.52;;;3.00;;
34828;SDS011;21042;47.620;12.188;2022-10-26T01:14:10;8.43;;;2.65;;
34828;SDS011;21042;47.620;12.188;2022-10-26T01:31:25;4.80;;;2.60;;
34828;SDS011;21042;47.620;12.188;2022-10-26T01:34:00;4.35;;;2.25;;
34828;SDS011;21042;47.620;12.188;2022-10-26T01:36:32;5.20;;;2.35;;
34828;SDS011;21042;47.620;12.188;2022-10-26T01:41:46;5.40;;;2.40;;
34828;SDS011;21042;47.620;12.188;2022-10-26T01:46:50;3.95;;;2.38;;
34828;SDS011;21042;47.620;12.188;2022-10-26T01:49:20;4.72;;;2.50;;
34828;SDS011;21042;47.620;12.188;2022-10-26T01:51:51;5.90;;;2.20;;
34828;SDS011;21042;47.620;12.188;2022-10-26T01:54:17;8.10;;;4.15;;
34828;SDS011;21042;47.620;12.188;2022-10-26T01:56:45;8.25;;;2.25;;
34828;SDS011;21042;47.620;12.188;2022-10-26T02:02:14;5.25;;;2.50;;
34828;SDS011;21042;47.620;12.188;2022-10-26T02:05:07;4.90;;;2.47;;
34828;SDS011;21042;47.620;12.188;2022-10-26T02:22:54;4.73;;;1.80;;
34828;SDS011;21042;47.620;12.188;2022-10-26T02:25:28;5.05;;;2.00;;
34828;SDS011;21042;47.620;12.188;2022-10-26T02:27:59;4.28;;;1.77;;
34828;SDS011;21042;47.620;12.188;2022-10-26T02:30:31;7.82;;;2.08;;
34828;SDS011;21042;47.620;12.188;2022-10-26T02:33:00;3.40;;;2.05;;
34828;SDS011;21042;47.620;12.188;2022-10-26T02:35:30;3.97;;;1.88;;
34828;SDS011;21042;47.620;12.188;2022-10-26T02:38:00;6.07;;;1.70;;
34828;SDS011;21042;47.620;12.188;2022-10-26T02:40:29;5.45;;;1.90;;
34828;SDS011;21042;47.620;12.188;2022-10-26T02:42:59;4.47;;;1.92;;
34828;SDS011;21042;47.620;12.188;2022-10-26T02:45:32;3.15;;;2.10;;
34828;SDS011;21042;47.620;12.188;2022-10-26T02:48:02;4.10;;;2.17;;
34828;SDS011;21042;47.620;12.188;2022-10-26T02:50:46;6.85;;;2.20;;
34828;SDS011;21042;47.620;12.188;2022-10-26T02:56:15;3.90;;;2.15;;
34828;SDS011;21042;47.620;12.188;2022-10-26T02:58:48;6.38;;;1.80;;
34828;SDS011;21042;47.620;12.188;2022-10-26T03:01:18;4.55;;;1.77;;
34828;SDS011;21042;47.620;12.188;2022-10-26T03:03:45;4.32;;;1.83;;
34828;SDS011;21042;47.620;12.188;2022-10-26T03:06:19;3.67;;;1.80;;
34828;SDS011;21042;47.620;12.188;2022-10-26T03:08:48;3.67;;;1.48;;
34828;SDS011;21042;47.620;12.188;2022-10-26T03:11:15;4.10;;;1.85;;
34828;SDS011;21042;47.620;12.188;2022-10-26T03:13:42;8.90;;;1.70;;
34828;SDS011;21042;47.620;12.188;2022-10-26T03:16:09;6.55;;;1.70;;
34828;SDS011;21042;47.620;12.188;2022-10-26T03:21:03;3.58;;;1.30;;
34828;SDS011;21042;47.620;12.188;2022-10-26T03:23:30;5.35;;;2.45;;
34828;SDS011;21042;47.620;12.188;2022-10-26T03:25:57;34.67;;;20.13;;
34828;SDS011;21042;47.620;12.188;2022-10-26T03:28:24;70.95;;;42.38;;
34828;SDS011;21042;47.620;12.188;2022-10-26T03:30:50;44.20;;;28.38;;
34828;SDS011;21042;47.620;12.188;2022-10-26T03:33:17;39.53;;;24.27;;
34828;SDS011;21042;47.620;12.188;2022-10-26T03:35:44;21.27;;;12.30;;
34828;SDS011;21042;47.620;12.188;2022-10-26T03:38:11;13.25;;;8.40;;
34828;SDS011;21042;47.620;12.188;2022-10-26T03:40:41;17.40;;;9.52;;
34828;SDS011;21042;47.620;12.188;2022-10-26T03:43:08;39.08;;;18.35;;
34828;SDS011;21042;47.620;12.188;2022-10-26T03:45:34;60.10;;;26.13;;
34828;SDS011;21042;47.620;12.188;2022-10-26T03:48:01;31.83;;;12.45;;
34828;SDS011;21042;47.620;12.188;2022-10-26T03:50:28;11.32;;;3.90;;
34828;SDS011;21042;47.620;12.188;2022-10-26T03:52:55;5.07;;;2.15;;
34828;SDS011;21042;47.620;12.188;2022-10-26T03:55:21;3.17;;;1.75;;
34828;SDS011;21042;47.620;12.188;2022-10-26T03:57:48;2.85;;;1.70;;
34828;SDS011;21042;47.620;12.188;2022-10-26T04:00:15;3.25;;;1.50;;
34828;SDS011;21042;47.620;12.188;2022-10-26T04:02:43;7.28;;;1.60;;
34828;SDS011;21042;47.620;12.188;2022-10-26T04:05:17;5.20;;;2.03;;
34828;SDS011;21042;47.620;12.188;2022-10-26T04:07:48;4.13;;;1.70;;
34828;SDS011;21042;47.620;12.188;2022-10-26T04:10:28;4.75;;;1.42;;
34828;SDS011;21042;47.620;12.188;2022-10-26T04:12:56;6.22;;;1.80;;
34828;SDS011;21042;47.620;12.188;2022-10-26T04:15:24;4.55;;;1.60;;
34828;SDS011;21042;47.620;12.188;2022-10-26T04:17:54;5.90;;;1.70;;
34828;SDS011;21042;47.620;12.188;2022-10-26T04:20:22;3.45;;;1.92;;
34828;SDS011;21042;47.620;12.188;2022-10-26T04:22:56;7.13;;;2.28;;
34828;SDS011;21042;47.620;12.188;2022-10-26T04:25:24;9.35;;;2.25;;
34828;SDS011;21042;47.620;12.188;2022-10-26T04:27:56;5.95;;;2.33;;
34828;SDS011;21042;47.620;12.188;2022-10-26T04:30:24;2.90;;;1.95;;
34828;SDS011;21042;47.620;12.188;2022-10-26T04:32:51;4.28;;;2.17;;
34828;SDS011;21042;47.620;12.188;2022-10-26T04:35:18;2.80;;;1.92;;
34828;SDS011;21042;47.620;12.188;2022-10-26T04:37:45;2.95;;;2.10;;
34828;SDS011;21042;47.620;12.188;2022-10-26T04:40:12;4.20;;;1.77;;
34828;SDS011;21042;47.620;12.188;2022-10-26T04:42:39;5.28;;;2.00;;
34828;SDS011;21042;47.620;12.188;2022-10-26T04:45:10;4.13;;;2.33;;
34828;SDS011;21042;47.620;12.188;2022-10-26T04:47:38;6.15;;;1.92;;
34828;SDS011;21042;47.620;12.188;2022-10-26T04:50:05;4.03;;;2.47;;
34828;SDS011;21042;47.620;12.188;2022-10-26T04:52:34;4.90;;;2.35;;
34828;SDS011;21042;47.620;12.188;2022-10-26T04:57:31;3.25;;;1.95;;
34828;SDS011;21042;47.620;12.188;2022-10-26T04:59:59;5.90;;;1.92;;
34828;SDS011;21042;47.620;12.188;2022-10-26T05:02:27;2.75;;;1.40;;
34828;SDS011;21042;47.620;12.188;2022-10-26T05:07:21;4.55;;;2.03;;
34828;SDS011;21042;47.620;12.188;2022-10-26T05:09:47;3.45;;;2.10;;
34828;SDS011;21042;47.620;12.188;2022-10-26T05:12:14;3.13;;;2.15;;
34828;SDS011;21042;47.620;12.188;2022-10-26T05:14:41;3.85;;;1.98;;
34828;SDS011;21042;47.620;12.188;2022-10-26T05:17:07;10.80;;;3.83;;
34828;SDS011;21042;47.620;12.188;2022-10-26T05:19:34;4.47;;;2.28;;
34828;SDS011;21042;47.620;12.188;2022-10-26T05:22:01;4.38;;;2.45;;
34828;SDS011;21042;47.620;12.188;2022-10-26T05:24:28;3.97;;;1.75;;
34828;SDS011;21042;47.620;12.188;2022-10-26T05:26:54;8.00;;;2.75;;
34828;SDS011;21042;47.620;12.188;2022-10-26T05:29:21;4.40;;;1.85;;
34828;SDS011;21042;47.620;12.188;2022-10-26T05:31:48;7.18;;;1.60;;
34828;SDS011;21042;47.620;12.188;2022-10-26T05:34:15;2.80;;;1.70;;
34828;SDS011;21042;47.620;12.188;2022-10-26T05:36:41;5.07;;;2.40;;
34828;SDS011;21042;47.620;12.188;2022-10-26T05:39:08;5.93;;;2.50;;
34828;SDS011;21042;47.620;12.188;2022-10-26T05:41:35;5.65;;;2.70;;
34828;SDS011;21042;47.620;12.188;2022-10-26T05:44:01;4.30;;;2.47;;
34828;SDS011;21042;47.620;12.188;2022-10-26T05:46:28;4.85;;;2.42;;
34828;SDS011;21042;47.620;12.188;2022-10-26T05:48:55;7.55;;;2.17;;
34828;SDS011;21042;47.620;12.188;2022-10-26T05:51:22;4.38;;;2.13;;
34828;SDS011;21042;47.620;12.188;2022-10-26T05:53:50;4.22;;;1.92;;
34828;SDS011;21042;47.620;12.188;2022-10-26T05:56:20;2.88;;;1.88;;
34828;SDS011;21042;47.620;12.188;2022-10-26T05:59:04;7.10;;;2.08;;
34828;SDS011;21042;47.620;12.188;2022-10-26T06:04:43;5.40;;;1.92;;
34828;SDS011;21042;47.620;12.188;2022-10-26T06:07:15;5.13;;;2.30;;
34828;SDS011;21042;47.620;12.188;2022-10-26T06:09:44;5.65;;;2.30;;
34828;SDS011;21042;47.620;12.188;2022-10-26T06:12:12;7.63;;;2.40;;
34828;SDS011;21042;47.620;12.188;2022-10-26T06:14:45;7.05;;;2.40;;
34828;SDS011;21042;47.620;12.188;2022-10-26T06:22:34;4.43;;;2.88;;
34828;SDS011;21042;47.620;12.188;2022-10-26T06:30:38;3.72;;;2.30;;
34828;SDS011;21042;47.620;12.188;2022-10-26T06:33:07;6.38;;;2.30;;
34828;SDS011;21042;47.620;12.188;2022-10-26T06:38:38;10.23;;;2.30;;
34828;SDS011;21042;47.620;12.188;2022-10-26T06:41:10;3.58;;;2.08;;
34828;SDS011;21042;47.620;12.188;2022-10-26T06:43:40;3.95;;;2.00;;
34828;SDS011;21042;47.620;12.188;2022-10-26T06:54:51;3.28;;;2.08;;
34828;SDS011;21042;47.620;12.188;2022-10-26T06:57:23;5.53;;;2.00;;
34828;SDS011;21042;47.620;12.188;2022-10-26T06:59:59;4.80;;;2.42;;
34828;SDS011;21042;47.620;12.188;2022-10-26T07:02:27;4.63;;;1.50;;
34828;SDS011;21042;47.620;12.188;2022-10-26T07:04:54;4.30;;;2.03;;
34828;SDS011;21042;47.620;12.188;2022-10-26T07:07:24;5.75;;;2.38;;
34828;SDS011;21042;47.620;12.188;2022-10-26T07:09:54;4.80;;;2.20;;
34828;SDS011;21042;47.620;12.188;2022-10-26T07:12:20;6.07;;;2.40;;
34828;SDS011;21042;47.620;12.188;2022-10-26T07:14:47;6.90;;;2.40;;
34828;SDS011;21042;47.620;12.188;2022-10-26T07:17:14;3.08;;;2.13;;
34828;SDS011;21042;47.620;12.188;2022-10-26T07:19:42;6.53;;;2.38;;
34828;SDS011;21042;47.620;12.188;2022-10-26T07:22:10;5.03;;;2.70;;
34828;SDS011;21042;47.620;12.188;2022-10-26T07:24:37;4.50;;;2.20;;
34828;SDS011;21042;47.620;12.188;2022-10-26T07:27:04;4.15;;;2.20;;
34828;SDS011;21042;47.620;12.188;2022-10-26T07:29:31;4.13;;;2.50;;
34828;SDS011;21042;47.620;12.188;2022-10-26T07:32:00;7.85;;;2.45;;
34828;SDS011;21042;47.620;12.188;2022-10-26T07:34:27;3.80;;;2.35;;
34828;SDS011;21042;47.620;12.188;2022-10-26T07:36:53;4.68;;;2.70;;
34828;SDS011;21042;47.620;12.188;2022-10-26T07:39:20;6.45;;;3.28;;
34828;SDS011;21042;47.620;12.188;2022-10-26T07:41:47;4.70;;;2.75;;
34828;SDS011;21042;47.620;12.188;2022-10-26T07:44:14;3.50;;;2.20;;
34828;SDS011;21042;47.620;12.188;2022-10-26T07:46:40;7.90;;;2.45;;
34828;SDS011;21042;47.620;12.188;2022-10-26T07:49:07;2.88;;;2.38;;
34828;SDS011;21042;47.620;12.188;2022-10-26T07:51:34;12.18;;;2.70;;
34828;SDS011;21042;47.620;12.188;2022-10-26T07:54:01;5.68;;;2.58;;
34828;SDS011;21042;47.620;12.188;2022-10-26T07:56:28;7.55;;;2.35;;
34828;SDS011;21042;47.620;12.188;2022-10-26T07:58:55;7.35;;;2.53;;
34828;SDS011;21042;47.620;12.188;2022-10-26T08:01:23;3.65;;;2.42;;
34828;SDS011;21042;47.620;12.188;2022-10-26T08:06:20;4.35;;;2.63;;
34828;SDS011;21042;47.620;12.188;2022-10-26T08:08:47;5.47;;;2.45;;
34828;SDS011;21042;47.620;12.188;2022-10-26T08:11:15;6.35;;;2.72;;
34828;SDS011;21042;47.620;12.188;2022-10-26T08:13:42;4.72;;;1.90;;
34828;SDS011;21042;47.620;12.188;2022-10-26T08:16:09;3.47;;;2.33;;
34828;SDS011;21042;47.620;12.188;2022-10-26T08:18:36;4.88;;;1.88;;
34828;SDS011;21042;47.620;12.188;2022-10-26T08:21:04;10.93;;;2.55;;
34828;SDS011;21042;47.620;12.188;2022-10-26T08:23:37;3.92;;;1.67;;
34828;SDS011;21042;47.620;12.188;2022-10-26T08:28:30;4.90;;;1.77;;
34828;SDS011;21042;47.620;12.188;2022-10-26T08:30:57;6.57;;;2.10;;
34828;SDS011;21042;47.620;12.188;2022-10-26T08:33:24;6.90;;;2.25;;
34828;SDS011;21042;47.620;12.188;2022-10-26T08:35:55;3.83;;;2.30;;
34828;SDS011;21042;47.620;12.188;2022-10-26T08:38:22;9.82;;;2.70;;
34828;SDS011;21042;47.620;12.188;2022-10-26T08:40:49;5.22;;;2.40;;
34828;SDS011;21042;47.620;12.188;2022-10-26T08:46:15;12.13;;;4.43;;
34828;SDS011;21042;47.620;12.188;2022-10-26T08:48:58;3.47;;;1.98;;
34828;SDS011;21042;47.620;12.188;2022-10-26T08:51:35;3.13;;;2.00;;
34828;SDS011;21042;47.620;12.188;2022-10-26T08:56:55;2.60;;;1.58;;
34828;SDS011;21042;47.620;12.188;2022-10-26T09:02:01;2.78;;;1.70;;
34828;SDS011;21042;47.620;12.188;2022-10-26T09:04:28;2.55;;;1.80;;
34828;SDS011;21042;47.620;12.188;2022-10-26T09:18:47;8.13;;;2.78;;
34828;SDS011;21042;47.620;12.188;2022-10-26T09:21:23;4.60;;;2.08;;
34828;SDS011;21042;47.620;12.188;2022-10-26T09:24:14;3.22;;;2.00;;
34828;SDS011;21042;47.620;12.188;2022-10-26T09:27:10;2.95;;;1.98;;
34828;SDS011;21042;47.620;12.188;2022-10-26T09:29:41;4.38;;;2.10;;
34828;SDS011;21042;47.620;12.188;2022-10-26T09:32:12;2.97;;;1.77;;
34828;SDS011;21042;47.620;12.188;2022-10-26T09:34:52;6.20;;;1.73;;
34828;SDS011;21042;47.620;12.188;2022-10-26T09:37:30;2.92;;;1.90;;
34828;SDS011;21042;47.620;12.188;2022-10-26T09:45:45;5.28;;;1.67;;
34828;SDS011;21042;47.620;12.188;2022-10-26T09:48:21;4.45;;;2.00;;
34828;SDS011;21042;47.620;12.188;2022-10-26T09:51:09;3.80;;;1.90;;
34828;SDS011;21042;47.620;12.188;2022-10-26T09:53:36;6.60;;;1.83;;
34828;SDS011;21042;47.620;12.188;2022-10-26T09:56:03;3.22;;;1.88;;
34828;SDS011;21042;47.620;12.188;2022-10-26T09:58:36;3.85;;;1.67;;
34828;SDS011;21042;47.620;12.188;2022-10-26T10:01:18;2.90;;;1.70;;
34828;SDS011;21042;47.620;12.188;2022-10-26T10:06:39;3.80;;;1.98;;
34828;SDS011;21042;47.620;12.188;2022-10-26T10:09:11;4.35;;;2.10;;
34828;SDS011;21042;47.620;12.188;2022-10-26T10:14:24;4.13;;;1.77;;
34828;SDS011;21042;47.620;12.188;2022-10-26T10:17:14;3.35;;;1.60;;
34828;SDS011;21042;47.620;12.188;2022-10-26T10:19:47;5.40;;;1.63;;
34828;SDS011;21042;47.620;12.188;2022-10-26T10:24:42;5.70;;;2.53;;
34828;SDS011;21042;47.620;12.188;2022-10-26T10:27:19;2.60;;;1.88;;
34828;SDS011;21042;47.620;12.188;2022-10-26T10:29:47;4.25;;;1.70;;
34828;SDS011;21042;47.620;12.188;2022-10-26T10:34:46;3.45;;;1.50;;
34828;SDS011;21042;47.620;12.188;2022-10-26T10:37:27;3.13;;;1.83;;
34828;SDS011;21042;47.620;12.188;2022-10-26T10:39:57;4.90;;;1.75;;
34828;SDS011;21042;47.620;12.188;2022-10-26T10:42:44;3.40;;;1.93;;
34828;SDS011;21042;47.620;12.188;2022-10-26T10:45:20;9.02;;;1.98;;
34828;SDS011;21042;47.620;12.188;2022-10-26T10:48:00;3.30;;;1.70;;
34828;SDS011;21042;47.620;12.188;2022-10-26T10:50:48;5.38;;;1.60;;
34828;SDS011;21042;47.620;12.188;2022-10-26T10:56:22;3.90;;;1.80;;
34828;SDS011;21042;47.620;12.188;2022-10-26T11:07:16;3.80;;;1.90;;
34828;SDS011;21042;47.620;12.188;2022-10-26T11:09:44;5.80;;;1.90;;
34828;SDS011;21042;47.620;12.188;2022-10-26T11:12:18;5.00;;;2.20;;
34828;SDS011;21042;47.620;12.188;2022-10-26T11:15:00;2.53;;;1.42;;
34828;SDS011;21042;47.620;12.188;2022-10-26T11:17:38;2.95;;;2.08;;
34828;SDS011;21042;47.620;12.188;2022-10-26T11:20:16;3.65;;;1.60;;
34828;SDS011;21042;47.620;12.188;2022-10-26T11:23:10;4.07;;;2.15;;
34828;SDS011;21042;47.620;12.188;2022-10-26T11:25:37;6.68;;;2.05;;
34828;SDS011;21042;47.620;12.188;2022-10-26T11:28:30;2.88;;;1.40;;
34828;SDS011;21042;47.620;12.188;2022-10-26T11:31:12;2.95;;;1.38;;
34828;SDS011;21042;47.620;12.188;2022-10-26T11:33:45;3.42;;;1.73;;
34828;SDS011;21042;47.620;12.188;2022-10-26T11:36:28;3.00;;;1.60;;
34828;SDS011;21042;47.620;12.188;2022-10-26T11:39:05;3.45;;;1.73;;
34828;SDS011;21042;47.620;12.188;2022-10-26T11:44:38;7.28;;;3.10;;
34828;SDS011;21042;47.620;12.188;2022-10-26T11:54:54;4.10;;;1.90;;
34828;SDS011;21042;47.620;12.188;2022-10-26T11:59:55;3.17;;;2.00;;
34828;SDS011;21042;47.620;12.188;2022-10-26T12:02:41;3.67;;;1.60;;
34828;SDS011;21042;47.620;12.188;2022-10-26T12:07:58;3.47;;;1.40;;
34828;SDS011;21042;47.620;12.188;2022-10-26T12:10:28;3.95;;;1.50;;
34828;SDS011;21042;47.620;12.188;2022-10-26T12:13:08;2.38;;;1.42;;
34828;SDS011;21042;47.620;12.188;2022-10-26T12:18:46;5.07;;;1.92;;
34828;SDS011;21042;47.620;12.188;2022-10-26T12:21:23;4.38;;;1.48;;
34828;SDS011;21042;47.620;12.188;2022-10-26T12:23:59;6.10;;;1.60;;
34828;SDS011;21042;47.620;12.188;2022-10-26T12:26:54;3.95;;;1.55;;
34828;SDS011;21042;47.620;12.188;2022-10-26T12:35:54;3.05;;;1.67;;
34828;SDS011;21042;47.620;12.188;2022-10-26T12:43:36;4.53;;;1.60;;
34828;SDS011;21042;47.620;12.188;2022-10-26T12:56:49;3.00;;;1.73;;
34828;SDS011;21042;47.620;12.188;2022-10-26T13:05:48;3.35;;;1.63;;
34828;SDS011;21042;47.620;12.188;2022-10-26T13:13:57;4.30;;;2.38;;
34828;SDS011;21042;47.620;12.188;2022-10-26T13:16:27;4.15;;;1.92;;
34828;SDS011;21042;47.620;12.188;2022-10-26T13:18:54;6.72;;;2.13;;
34828;SDS011;21042;47.620;12.188;2022-10-26T13:21:23;3.40;;;1.85;;
34828;SDS011;21042;47.620;12.188;2022-10-26T13:26:27;4.97;;;2.03;;
34828;SDS011;21042;47.620;12.188;2022-10-26T13:28:59;3.13;;;2.03;;
34828;SDS011;21042;47.620;12.188;2022-10-26T13:39:17;6.15;;;2.88;;
34828;SDS011;21042;47.620;12.188;2022-10-26T13:41:48;3.47;;;2.25;;
34828;SDS011;21042;47.620;12.188;2022-10-26T13:47:03;8.57;;;2.47;;
34828;SDS011;21042;47.620;12.188;2022-10-26T13:49:39;6.38;;;2.60;;
34828;SDS011;21042;47.620;12.188;2022-10-26T13:52:13;16.98;;;2.88;;
34828;SDS011;21042;47.620;12.188;2022-10-26T13:54:45;9.27;;;2.72;;
34828;SDS011;21042;47.620;12.188;2022-10-26T13:59:57;5.70;;;2.42;;
34828;SDS011;21042;47.620;12.188;2022-10-26T14:02:39;5.13;;;2.45;;
34828;SDS011;21042;47.620;12.188;2022-10-26T14:05:09;7.55;;;3.80;;
34828;SDS011;21042;47.620;12.188;2022-10-26T14:07:40;5.53;;;2.80;;
34828;SDS011;21042;47.620;12.188;2022-10-26T14:10:40;4.72;;;2.90;;
34828;SDS011;21042;47.620;12.188;2022-10-26T14:13:14;5.43;;;2.72;;
34828;SDS011;21042;47.620;12.188;2022-10-26T14:15:43;4.97;;;2.80;;
34828;SDS011;21042;47.620;12.188;2022-10-26T14:18:15;4.72;;;2.40;;
34828;SDS011;21042;47.620;12.188;2022-10-26T14:21:01;4.95;;;2.65;;
34828;SDS011;21042;47.620;12.188;2022-10-26T14:23:34;7.37;;;2.50;;
34828;SDS011;21042;47.620;12.188;2022-10-26T14:26:03;5.47;;;2.83;;
34828;SDS011;21042;47.620;12.188;2022-10-26T14:28:31;5.47;;;2.90;;
34828;SDS011;21042;47.620;12.188;2022-10-26T14:31:19;7.97;;;3.30;;
34828;SDS011;21042;47.620;12.188;2022-10-26T14:33:48;9.38;;;3.63;;
34828;SDS011;21042;47.620;12.188;2022-10-26T14:36:16;5.95;;;3.47;;
34828;SDS011;21042;47.620;12.188;2022-10-26T14:38:48;9.55;;;3.70;;
34828;SDS011;21042;47.620;12.188;2022-10-26T14:41:20;5.90;;;3.03;;
34828;SDS011;21042;47.620;12.188;2022-10-26T14:43:48;5.75;;;3.20;;
34828;SDS011;21042;47.620;12.188;2022-10-26T14:51:17;5.03;;;2.70;;
34828;SDS011;21042;47.620;12.188;2022-10-26T14:53:49;6.07;;;2.53;;
34828;SDS011;21042;47.620;12.188;2022-10-26T14:58:54;5.30;;;2.55;;
34828;SDS011;21042;47.620;12.188;2022-10-26T15:03:50;13.30;;;6.03;;
34828;SDS011;21042;47.620;12.188;2022-10-26T15:08:55;6.93;;;3.55;;
34828;SDS011;21042;47.620;12.188;2022-10-26T15:11:27;6.35;;;4.10;;
34828;SDS011;21042;47.620;12.188;2022-10-26T15:13:55;19.45;;;9.40;;
34828;SDS011;21042;47.620;12.188;2022-10-26T15:16:24;13.90;;;6.75;;
34828;SDS011;21042;47.620;12.188;2022-10-26T15:19:05;11.77;;;6.57;;
34828;SDS011;21042;47.620;12.188;2022-10-26T15:21:36;16.30;;;8.07;;
34828;SDS011;21042;47.620;12.188;2022-10-26T15:26:45;34.78;;;15.13;;
34828;SDS011;21042;47.620;12.188;2022-10-26T15:34:33;5.30;;;3.60;;
34828;SDS011;21042;47.620;12.188;2022-10-26T15:37:07;5.70;;;3.03;;
34828;SDS011;21042;47.620;12.188;2022-10-26T15:39:34;13.45;;;5.85;;
34828;SDS011;21042;47.620;12.188;2022-10-26T15:42:00;27.65;;;14.13;;
34828;SDS011;21042;47.620;12.188;2022-10-26T15:44:27;15.88;;;9.75;;
34828;SDS011;21042;47.620;12.188;2022-10-26T15:46:54;21.50;;;9.00;;
34828;SDS011;21042;47.620;12.188;2022-10-26T15:49:31;15.93;;;8.35;;
34828;SDS011;21042;47.620;12.188;2022-10-26T15:51:58;21.42;;;9.93;;
34828;SDS011;21042;47.620;12.188;2022-10-26T15:54:25;16.80;;;10.07;;
34828;SDS011;21042;47.620;12.188;2022-10-26T15:56:51;18.35;;;11.50;;
34828;SDS011;21042;47.620;12.188;2022-10-26T15:59:18;21.13;;;12.27;;
34828;SDS011;21042;47.620;12.188;2022-10-26T16:01:45;14.20;;;9.02;;
34828;SDS011;21042;47.620;12.188;2022-10-26T16:04:12;10.75;;;6.88;;
34828;SDS011;21042;47.620;12.188;2022-10-26T16:06:39;17.38;;;8.10;;
34828;SDS011;21042;47.620;12.188;2022-10-26T16:09:09;9.35;;;5.50;;
34828;SDS011;21042;47.620;12.188;2022-10-26T16:11:41;20.80;;;7.30;;
34828;SDS011;21042;47.620;12.188;2022-10-26T16:14:08;24.65;;;13.75;;
34828;SDS011;21042;47.620;12.188;2022-10-26T16:16:36;20.45;;;11.40;;
34828;SDS011;21042;47.620;12.188;2022-10-26T16:19:03;14.02;;;8.75;;
34828;SDS011;21042;47.620;12.188;2022-10-26T16:21:50;21.30;;;10.52;;
34828;SDS011;21042;47.620;12.188;2022-10-26T16:24:17;20.48;;;10.15;;
34828;SDS011;21042;47.620;12.188;2022-10-26T16:26:44;18.17;;;13.23;;
34828;SDS011;21042;47.620;12.188;2022-10-26T16:29:11;12.73;;;7.30;;
34828;SDS011;21042;47.620;12.188;2022-10-26T16:31:37;16.17;;;8.25;;
34828;SDS011;21042;47.620;12.188;2022-10-26T16:34:04;12.23;;;8.48;;
34828;SDS011;21042;47.620;12.188;2022-10-26T16:36:31;10.93;;;7.75;;
34828;SDS011;21042;47.620;12.188;2022-10-26T16:38:59;16.02;;;9.05;;
34828;SDS011;21042;47.620;12.188;2022-10-26T16:41:27;13.77;;;9.18;;
34828;SDS011;21042;47.620;12.188;2022-10-26T16:43:54;13.70;;;8.85;;
34828;SDS011;21042;47.620;12.188;2022-10-26T16:46:21;15.00;;;8.50;;
34828;SDS011;21042;47.620;12.188;2022-10-26T16:51:25;10.85;;;7.43;;
34828;SDS011;21042;47.620;12.188;2022-10-26T16:53:54;14.50;;;8.07;;
34828;SDS011;21042;47.620;12.188;2022-10-26T16:56:22;14.07;;;7.38;;
34828;SDS011;21042;47.620;12.188;2022-10-26T16:58:51;18.17;;;6.78;;
34828;SDS011;21042;47.620;12.188;2022-10-26T17:01:18;20.58;;;11.45;;
34828;SDS011;21042;47.620;12.188;2022-10-26T17:05:37;29.13;;;14.68;;
34828;SDS011;21042;47.620;12.188;2022-10-26T17:08:04;22.55;;;11.27;;
34828;SDS011;21042;47.620;12.188;2022-10-26T17:10:32;21.27;;;13.80;;
34828;SDS011;21042;47.620;12.188;2022-10-26T17:12:59;14.98;;;8.93;;
34828;SDS011;21042;47.620;12.188;2022-10-26T17:15:25;50.88;;;25.05;;
34828;SDS011;21042;47.620;12.188;2022-10-26T17:17:54;45.53;;;23.95;;
34828;SDS011;21042;47.620;12.188;2022-10-26T17:20:21;32.92;;;17.13;;
34828;SDS011;21042;47.620;12.188;2022-10-26T17:22:48;24.70;;;15.05;;
34828;SDS011;21042;47.620;12.188;2022-10-26T17:25:15;16.85;;;10.35;;
34828;SDS011;21042;47.620;12.188;2022-10-26T17:27:41;20.17;;;13.23;;
34828;SDS011;21042;47.620;12.188;2022-10-26T17:30:12;22.17;;;13.88;;
34828;SDS011;21042;47.620;12.188;2022-10-26T17:32:39;24.35;;;13.55;;
34828;SDS011;21042;47.620;12.188;2022-10-26T17:35:06;26.65;;;15.30;;
34828;SDS011;21042;47.620;12.188;2022-10-26T17:37:33;29.10;;;14.20;;
34828;SDS011;21042;47.620;12.188;2022-10-26T17:40:00;21.67;;;13.15;;
34828;SDS011;21042;47.620;12.188;2022-10-26T17:42:27;21.92;;;12.60;;
34828;SDS011;21042;47.620;12.188;2022-10-26T17:44:53;22.08;;;12.43;;
34828;SDS011;21042;47.620;12.188;2022-10-26T17:47:20;23.30;;;12.07;;
34828;SDS011;21042;47.620;12.188;2022-10-26T17:49:47;20.40;;;11.88;;
34828;SDS011;21042;47.620;12.188;2022-10-26T17:52:14;20.02;;;11.40;;
34828;SDS011;21042;47.620;12.188;2022-10-26T17:54:40;22.13;;;10.35;;
34828;SDS011;21042;47.620;12.188;2022-10-26T17:57:07;16.58;;;10.55;;
34828;SDS011;21042;47.620;12.188;2022-10-26T17:59:34;31.33;;;15.30;;
34828;SDS011;21042;47.620;12.188;2022-10-26T18:02:00;48.60;;;23.00;;
34828;SDS011;21042;47.620;12.188;2022-10-26T18:04:27;35.83;;;19.85;;
34828;SDS011;21042;47.620;12.188;2022-10-26T18:06:54;37.85;;;19.30;;
34828;SDS011;21042;47.620;12.188;2022-10-26T18:09:21;31.98;;;17.02;;
34828;SDS011;21042;47.620;12.188;2022-10-26T18:11:47;25.65;;;12.48;;
34828;SDS011;21042;47.620;12.188;2022-10-26T18:14:18;20.10;;;12.50;;
34828;SDS011;21042;47.620;12.188;2022-10-26T18:16:45;21.92;;;10.60;;
34828;SDS011;21042;47.620;12.188;2022-10-26T18:19:12;19.88;;;9.10;;
34828;SDS011;21042;47.620;12.188;2022-10-26T18:21:39;13.10;;;6.47;;
34828;SDS011;21042;47.620;12.188;2022-10-26T18:24:05;10.55;;;5.55;;
34828;SDS011;21042;47.620;12.188;2022-10-26T18:26:42;8.43;;;5.22;;
34828;SDS011;21042;47.620;12.188;2022-10-26T18:29:17;8.73;;;4.90;;
34828;SDS011;21042;47.620;12.188;2022-10-26T18:31:44;10.20;;;5.35;;
34828;SDS011;21042;47.620;12.188;2022-10-26T18:34:11;7.82;;;4.82;;